Time;durP1;ratioP1;P1;durP2;ratioP2;P2;SDS_P1;SDS_P2;PMS_P1;PMS_P2;Temp;Humidity;BMP_temperature;BMP_pressure;BME280_temperature;BME280_humidity;BME280_pressure;Samples;Min_cycle;Max_cycle;Signal;HPM_P1;HPM_P2
2022/04/16 00:00:07;;;;;;;4.82;3.45;;;;;;;;;;5020531;28;20049;-68
2022/04/16 00:02:32;;;;;;;4.90;3.85;;;;;;;;;;5021205;28;20044;-69
2022/04/16 00:04:58;;;;;;;8.30;3.92;;;;;;;;;;5019235;28;20025;-68
2022/04/16 00:07:23;;;;;;;5.03;3.47;;;;;;;;;;5020742;28;20183;-69
2022/04/16 00:09:49;;;;;;;4.30;3.45;;;;;;;;;;5020694;28;20027;-68
2022/04/16 00:12:14;;;;;;;4.78;3.70;;;;;;;;;;5021064;28;20494;-69
2022/04/16 00:14:40;;;;;;;5.45;3.92;;;;;;;;;;5018139;28;20049;-68
2022/04/16 00:17:06;;;;;;;6.97;4.13;;;;;;;;;;5018922;28;20044;-69
2022/04/16 00:19:32;;;;;;;5.22;3.90;;;;;;;;;;5021315;28;20554;-69
2022/04/16 00:21:59;;;;;;;5.18;4.03;;;;;;;;;;5020009;28;20113;-69
2022/04/16 00:24:27;;;;;;;5.65;4.03;;;;;;;;;;5020723;28;20167;-69
2022/04/16 00:26:52;;;;;;;6.00;4.45;;;;;;;;;;5018611;28;20498;-69
2022/04/16 00:29:18;;;;;;;4.90;3.83;;;;;;;;;;5019825;28;20061;-70
2022/04/16 00:31:45;;;;;;;6.28;3.90;;;;;;;;;;5020123;28;20055;-70
2022/04/16 00:34:14;;;;;;;4.53;3.75;;;;;;;;;;5020426;28;20036;-69
2022/04/16 00:36:41;;;;;;;4.55;3.92;;;;;;;;;;5018392;28;20120;-69
2022/04/16 00:39:07;;;;;;;5.80;4.00;;;;;;;;;;5020617;28;20129;-70
2022/04/16 00:41:32;;;;;;;5.03;4.28;;;;;;;;;;5020306;28;20022;-69
2022/04/16 00:43:58;;;;;;;6.70;3.88;;;;;;;;;;5020505;28;20521;-69
2022/04/16 00:46:23;;;;;;;7.05;4.80;;;;;;;;;;5020684;28;20037;-69
2022/04/16 00:48:49;;;;;;;5.95;4.53;;;;;;;;;;5023070;28;20203;-69
2022/04/16 00:51:15;;;;;;;5.97;3.70;;;;;;;;;;5023596;28;20460;-69
2022/04/16 00:53:40;;;;;;;5.68;3.75;;;;;;;;;;5024198;28;21030;-69
2022/04/16 00:56:08;;;;;;;5.97;4.20;;;;;;;;;;5023781;28;20091;-69
2022/04/16 00:58:33;;;;;;;7.53;4.00;;;;;;;;;;5022916;28;20037;-69
2022/04/16 01:00:59;;;;;;;4.65;3.90;;;;;;;;;;5023516;28;20032;-69
2022/04/16 01:03:26;;;;;;;4.60;3.67;;;;;;;;;;5023921;28;20037;-69
2022/04/16 01:05:51;;;;;;;4.32;3.60;;;;;;;;;;5023072;28;20037;-69
2022/04/16 01:08:19;;;;;;;4.63;3.35;;;;;;;;;;5023444;28;20025;-69
2022/04/16 01:10:45;;;;;;;4.68;3.55;;;;;;;;;;5021286;28;20044;-69
2022/04/16 01:13:11;;;;;;;4.70;3.95;;;;;;;;;;5023141;28;20033;-69
2022/04/16 01:15:39;;;;;;;5.82;4.05;;;;;;;;;;5023213;28;20136;-69
2022/04/16 01:18:05;;;;;;;6.03;3.80;;;;;;;;;;5022863;28;20037;-69
2022/04/16 01:20:36;;;;;;;4.90;4.07;;;;;;;;;;5021463;28;20041;-69
2022/04/16 01:23:02;;;;;;;5.80;4.18;;;;;;;;;;5023065;28;20120;-69
2022/04/16 01:25:28;;;;;;;5.20;3.92;;;;;;;;;;5023367;28;20045;-69
2022/04/16 01:27:54;;;;;;;4.85;4.05;;;;;;;;;;5021128;28;20446;-69
2022/04/16 01:30:22;;;;;;;4.28;3.88;;;;;;;;;;5023275;28;20557;-69
2022/04/16 01:32:50;;;;;;;5.35;3.80;;;;;;;;;;5022310;28;20036;-69
2022/04/16 01:35:17;;;;;;;4.75;3.80;;;;;;;;;;5022849;28;20064;-69
2022/04/16 01:37:42;;;;;;;4.25;3.85;;;;;;;;;;5023473;28;20124;-68
2022/04/16 01:40:10;;;;;;;4.00;3.60;;;;;;;;;;5023153;28;20034;-68
2022/04/16 01:42:36;;;;;;;6.03;3.90;;;;;;;;;;5022284;28;20409;-68
2022/04/16 01:45:03;;;;;;;3.90;3.50;;;;;;;;;;5021638;28;20046;-68
2022/04/16 01:47:29;;;;;;;4.60;3.90;;;;;;;;;;5020290;28;20040;-68
2022/04/16 01:49:55;;;;;;;5.18;3.72;;;;;;;;;;5023154;28;20028;-68
2022/04/16 01:52:23;;;;;;;4.40;3.88;;;;;;;;;;5023409;28;20483;-67
2022/04/16 01:54:49;;;;;;;4.82;3.90;;;;;;;;;;5018970;28;21150;-67
2022/04/16 01:57:18;;;;;;;4.63;4.03;;;;;;;;;;5014705;28;20034;-67
2022/04/16 01:59:48;;;;;;;7.32;3.90;;;;;;;;;;5004113;28;20033;-68
2022/04/16 02:02:15;;;;;;;4.65;3.53;;;;;;;;;;5021893;28;20083;-68
2022/04/16 02:04:40;;;;;;;4.07;3.42;;;;;;;;;;5022047;28;20510;-67
2022/04/16 02:07:06;;;;;;;6.60;3.80;;;;;;;;;;5022214;28;20116;-68
2022/04/16 02:09:32;;;;;;;4.43;3.90;;;;;;;;;;5023222;28;20037;-68
2022/04/16 02:11:58;;;;;;;4.43;3.80;;;;;;;;;;5022499;28;20045;-67
2022/04/16 02:14:23;;;;;;;5.45;4.50;;;;;;;;;;5021669;28;20041;-68
2022/04/16 02:16:49;;;;;;;6.75;4.10;;;;;;;;;;5020590;28;20037;-67
2022/04/16 02:19:15;;;;;;;7.43;4.03;;;;;;;;;;5022639;28;20467;-67
2022/04/16 02:21:44;;;;;;;7.82;4.32;;;;;;;;;;5021407;28;20044;-67
2022/04/16 02:24:10;;;;;;;5.32;4.40;;;;;;;;;;5022767;28;20037;-67
2022/04/16 02:26:36;;;;;;;4.68;3.80;;;;;;;;;;5019719;28;20045;-67
2022/04/16 02:29:01;;;;;;;4.55;3.95;;;;;;;;;;5023080;28;20041;-67
2022/04/16 02:31:27;;;;;;;4.95;3.90;;;;;;;;;;5020979;28;20343;-67
2022/04/16 02:33:55;;;;;;;4.60;3.78;;;;;;;;;;5023393;28;20040;-67
2022/04/16 02:36:25;;;;;;;4.38;3.97;;;;;;;;;;5022644;28;20029;-67
2022/04/16 02:38:57;;;;;;;6.15;4.38;;;;;;;;;;5020349;28;20037;-68
2022/04/16 02:41:23;;;;;;;;;;;;;;;;;;5022526;28;20090;-68
2022/04/16 02:43:48;;;;;;;4.25;3.72;;;;;;;;;;5023012;28;20011;-67
2022/04/16 02:48:58;;;;;;;4.38;3.55;;;;;;;;;;5020694;28;20033;-67
2022/04/16 02:51:24;;;;;;;4.90;4.00;;;;;;;;;;5021967;28;20106;-67
2022/04/16 02:53:50;;;;;;;6.05;4.13;;;;;;;;;;5022737;28;20033;-67
2022/04/16 02:56:16;;;;;;;5.30;4.07;;;;;;;;;;5021800;28;20022;-68
2022/04/16 02:58:41;;;;;;;6.03;3.90;;;;;;;;;;5022171;28;20563;-67
2022/04/16 03:01:07;;;;;;;6.68;4.60;;;;;;;;;;5020030;28;20033;-68
2022/04/16 03:03:33;;;;;;;5.85;4.38;;;;;;;;;;5022322;28;20033;-67
2022/04/16 03:05:58;;;;;;;9.73;5.05;;;;;;;;;;5021515;28;20383;-67
2022/04/16 03:08:24;;;;;;;4.78;3.80;;;;;;;;;;5021699;28;20057;-68
2022/04/16 03:10:54;;;;;;;8.23;4.50;;;;;;;;;;5019943;28;20029;-67
2022/04/16 03:13:19;;;;;;;6.82;4.28;;;;;;;;;;5020527;28;20043;-67
2022/04/16 03:18:30;;;;;;;5.93;4.30;;;;;;;;;;5021837;28;20148;-67
2022/04/16 03:20:57;;;;;;;6.03;4.05;;;;;;;;;;5021264;28;20132;-67
2022/04/16 03:23:23;;;;;;;7.82;5.38;;;;;;;;;;5019226;28;20514;-67
2022/04/16 03:25:48;;;;;;;6.13;4.38;;;;;;;;;;5021635;28;20101;-67
2022/04/16 03:28:15;;;;;;;6.43;4.32;;;;;;;;;;5021223;28;20052;-67
2022/04/16 03:30:40;;;;;;;6.75;4.78;;;;;;;;;;5021244;28;20053;-67
2022/04/16 03:33:06;;;;;;;6.45;4.13;;;;;;;;;;5019685;28;20122;-68
2022/04/16 03:35:32;;;;;;;5.63;4.72;;;;;;;;;;5021482;28;20060;-67
2022/04/16 03:37:58;;;;;;;7.18;4.50;;;;;;;;;;5021026;28;20419;-68
2022/04/16 03:40:26;;;;;;;6.72;5.05;;;;;;;;;;5021360;28;20029;-67
2022/04/16 03:42:58;;;;;;;5.47;4.40;;;;;;;;;;5022191;28;20029;-68
2022/04/16 03:45:26;;;;;;;7.32;5.30;;;;;;;;;;5019612;28;20045;-68
2022/04/16 03:47:53;;;;;;;5.93;4.80;;;;;;;;;;5020467;28;20082;-67
2022/04/16 03:50:20;;;;;;;6.60;4.35;;;;;;;;;;5021553;28;20067;-67
2022/04/16 03:52:46;;;;;;;7.80;5.13;;;;;;;;;;5022250;28;20059;-68
2022/04/16 04:00:46;;;;;;;6.45;4.47;;;;;;;;;;5020347;28;20033;-67
2022/04/16 04:03:12;;;;;;;7.32;4.30;;;;;;;;;;5021379;28;20025;-67
2022/04/16 04:05:38;;;;;;;6.85;4.65;;;;;;;;;;5016839;28;20124;-67
2022/04/16 04:08:09;;;;;;;6.57;4.45;;;;;;;;;;5018682;28;20121;-67
2022/04/16 04:10:35;;;;;;;7.47;5.22;;;;;;;;;;5020715;28;20112;-67
2022/04/16 04:13:01;;;;;;;6.68;4.90;;;;;;;;;;5020800;28;20037;-68
2022/04/16 04:15:29;;;;;;;8.05;5.32;;;;;;;;;;5020643;28;20029;-68
2022/04/16 04:17:59;;;;;;;7.50;5.05;;;;;;;;;;5019340;28;20079;-68
2022/04/16 04:20:25;;;;;;;7.15;5.28;;;;;;;;;;5021060;28;20037;-67
2022/04/16 04:22:51;;;;;;;9.60;5.57;;;;;;;;;;5024804;28;20048;-67
2022/04/16 04:25:16;;;;;;;9.98;5.68;;;;;;;;;;5024990;28;20033;-69
2022/04/16 04:27:42;;;;;;;9.43;6.38;;;;;;;;;;5023401;28;20045;-70
2022/04/16 04:30:08;;;;;;;8.15;5.82;;;;;;;;;;5024353;28;20652;-69
2022/04/16 04:32:33;;;;;;;10.40;6.55;;;;;;;;;;5025719;28;20034;-69
2022/04/16 04:34:59;;;;;;;8.23;5.75;;;;;;;;;;5024229;28;20063;-69
2022/04/16 04:37:24;;;;;;;9.32;5.68;;;;;;;;;;5023565;28;20064;-69
2022/04/16 04:39:50;;;;;;;10.23;6.55;;;;;;;;;;5022933;28;20037;-69
2022/04/16 04:42:26;;;;;;;11.13;6.00;;;;;;;;;;5025949;28;20076;-69
2022/04/16 04:44:51;;;;;;;10.88;5.63;;;;;;;;;;5024384;28;20482;-69
2022/04/16 04:47:17;;;;;;;11.05;5.60;;;;;;;;;;5024253;28;20099;-69
2022/04/16 04:49:42;;;;;;;7.90;5.35;;;;;;;;;;5023170;28;20045;-67
2022/04/16 04:52:08;;;;;;;8.70;5.18;;;;;;;;;;5024375;28;20041;-67
2022/04/16 04:54:33;;;;;;;6.35;5.00;;;;;;;;;;5022976;28;20055;-67
2022/04/16 04:56:59;;;;;;;7.43;5.20;;;;;;;;;;5023666;28;20033;-67
2022/04/16 04:59:24;;;;;;;6.15;4.80;;;;;;;;;;5024475;28;20075;-69
2022/04/16 05:01:50;;;;;;;6.50;5.20;;;;;;;;;;5022357;28;20116;-69
2022/04/16 05:04:16;;;;;;;6.97;5.03;;;;;;;;;;5024376;28;20039;-69
2022/04/16 05:06:41;;;;;;;6.57;5.43;;;;;;;;;;5023697;28;20901;-69
2022/04/16 05:09:07;;;;;;;7.72;5.13;;;;;;;;;;5024241;28;20045;-69
2022/04/16 05:11:32;;;;;;;6.47;5.05;;;;;;;;;;5020675;28;20410;-75
2022/04/16 05:13:58;;;;;;;7.22;5.07;;;;;;;;;;5022934;28;20041;-70
2022/04/16 05:16:23;;;;;;;8.02;5.28;;;;;;;;;;5022523;28;20497;-71
2022/04/16 05:18:49;;;;;;;9.35;5.72;;;;;;;;;;5023194;28;20099;-72
2022/04/16 05:21:14;;;;;;;8.50;5.43;;;;;;;;;;5022121;28;20037;-72
2022/04/16 05:23:40;;;;;;;10.20;6.40;;;;;;;;;;5022119;28;20045;-72
2022/04/16 05:26:10;;;;;;;10.77;6.80;;;;;;;;;;5022010;28;20116;-72
2022/04/16 05:28:36;;;;;;;8.73;5.97;;;;;;;;;;5021649;28;20908;-72
2022/04/16 05:31:03;;;;;;;8.27;6.15;;;;;;;;;;5022041;28;20075;-72
2022/04/16 05:36:13;;;;;;;8.32;6.05;;;;;;;;;;5023155;28;20375;-72
2022/04/16 05:38:38;;;;;;;7.32;5.03;;;;;;;;;;5024024;28;20493;-72
2022/04/16 05:41:04;;;;;;;8.32;5.78;;;;;;;;;;5023798;28;20120;-72
2022/04/16 05:43:29;;;;;;;10.27;5.50;;;;;;;;;;5024491;28;20129;-71
2022/04/16 05:45:55;;;;;;;9.75;5.50;;;;;;;;;;5021962;28;20116;-71
2022/04/16 05:48:20;;;;;;;8.77;5.70;;;;;;;;;;5021503;28;20037;-71
2022/04/16 05:50:46;;;;;;;8.93;6.07;;;;;;;;;;5021217;28;20040;-71
2022/04/16 05:53:13;;;;;;;7.32;5.60;;;;;;;;;;5021899;28;20107;-71
2022/04/16 05:55:41;;;;;;;8.52;5.75;;;;;;;;;;5019098;28;20046;-71
2022/04/16 05:58:07;;;;;;;7.95;5.10;;;;;;;;;;5019216;28;20119;-72
2022/04/16 06:00:33;;;;;;;10.00;5.90;;;;;;;;;;5018556;28;20038;-71
2022/04/16 06:02:59;;;;;;;7.50;5.35;;;;;;;;;;5020372;28;20041;-71
2022/04/16 06:05:24;;;;;;;8.77;6.03;;;;;;;;;;5022917;28;20053;-72
2022/04/16 06:07:50;;;;;;;7.93;5.50;;;;;;;;;;5021569;28;20029;-72
2022/04/16 06:10:15;;;;;;;9.50;6.05;;;;;;;;;;5023768;28;20021;-71
2022/04/16 06:12:41;;;;;;;8.32;5.15;;;;;;;;;;5023855;28;20036;-71
2022/04/16 06:15:07;;;;;;;8.13;6.25;;;;;;;;;;5021831;28;20041;-71
2022/04/16 06:17:35;;;;;;;8.20;5.88;;;;;;;;;;5020082;28;20029;-72
2022/04/16 06:20:04;;;;;;;11.57;5.40;;;;;;;;;;5020585;28;20017;-72
2022/04/16 06:22:29;;;;;;;7.10;5.65;;;;;;;;;;5025554;28;20030;-73
2022/04/16 06:24:55;;;;;;;6.38;4.82;;;;;;;;;;5024035;28;20031;-75
2022/04/16 06:27:20;;;;;;;7.28;5.20;;;;;;;;;;5022140;28;20037;-73
2022/04/16 06:29:46;;;;;;;8.15;5.25;;;;;;;;;;5024014;28;20120;-74
2022/04/16 06:32:11;;;;;;;7.03;5.10;;;;;;;;;;5024225;28;20041;-72
2022/04/16 06:34:36;;;;;;;9.98;6.03;;;;;;;;;;5025540;28;20028;-73
2022/04/16 06:37:02;;;;;;;9.65;5.65;;;;;;;;;;5024390;28;20060;-71
2022/04/16 06:39:28;;;;;;;7.60;5.80;;;;;;;;;;5023573;28;20044;-72
2022/04/16 06:41:53;;;;;;;6.63;5.18;;;;;;;;;;5021549;28;20083;-71
2022/04/16 06:44:20;;;;;;;7.93;6.07;;;;;;;;;;5019416;28;20052;-72
2022/04/16 06:46:46;;;;;;;6.18;4.85;;;;;;;;;;5019015;28;20094;-71
2022/04/16 06:49:11;;;;;;;6.75;4.88;;;;;;;;;;5020117;28;20030;-71
2022/04/16 06:51:37;;;;;;;6.80;5.10;;;;;;;;;;5022592;28;20520;-70
2022/04/16 06:54:02;;;;;;;7.32;5.05;;;;;;;;;;5021387;28;20037;-71
2022/04/16 06:56:28;;;;;;;5.78;4.50;;;;;;;;;;5023124;28;20044;-71
2022/04/16 06:58:53;;;;;;;5.40;4.68;;;;;;;;;;5021434;28;20075;-68
2022/04/16 07:01:18;;;;;;;5.68;4.70;;;;;;;;;;5020894;28;20479;-68
2022/04/16 07:03:44;;;;;;;6.57;4.43;;;;;;;;;;5022370;28;20095;-69
2022/04/16 07:06:09;;;;;;;5.88;4.18;;;;;;;;;;5021462;28;20029;-68
2022/04/16 07:08:35;;;;;;;6.03;4.68;;;;;;;;;;5021485;28;20402;-68
2022/04/16 07:11:00;;;;;;;6.10;4.38;;;;;;;;;;5021600;28;20494;-67
2022/04/16 07:13:25;;;;;;;4.80;4.20;;;;;;;;;;5019220;28;20033;-68
2022/04/16 07:15:51;;;;;;;5.25;4.15;;;;;;;;;;5021278;28;20473;-69
2022/04/16 07:18:17;;;;;;;5.15;4.00;;;;;;;;;;5022677;28;20041;-69
2022/04/16 07:20:45;;;;;;;4.88;4.32;;;;;;;;;;5023525;28;20037;-69
2022/04/16 07:23:10;;;;;;;6.10;4.45;;;;;;;;;;5020227;28;20037;-67
2022/04/16 07:25:36;;;;;;;6.68;4.28;;;;;;;;;;5009931;28;20060;-67
2022/04/16 07:28:01;;;;;;;5.68;4.50;;;;;;;;;;5014032;28;20036;-68
2022/04/16 07:30:27;;;;;;;4.47;3.65;;;;;;;;;;5016014;28;20549;-70
2022/04/16 07:32:53;;;;;;;6.20;4.28;;;;;;;;;;5018747;28;20038;-71
2022/04/16 07:35:19;;;;;;;4.80;3.90;;;;;;;;;;5017302;28;20394;-70
2022/04/16 07:37:46;;;;;;;4.82;3.90;;;;;;;;;;5018046;28;20029;-71
2022/04/16 07:40:12;;;;;;;4.93;4.40;;;;;;;;;;5018598;28;20124;-70
2022/04/16 07:42:38;;;;;;;5.55;4.55;;;;;;;;;;5018753;28;20038;-71
2022/04/16 07:45:04;;;;;;;5.10;3.97;;;;;;;;;;5018460;28;20044;-70
2022/04/16 07:47:29;;;;;;;6.95;4.93;;;;;;;;;;5020267;28;20034;-70
2022/04/16 07:49:55;;;;;;;5.90;4.22;;;;;;;;;;5022330;28;20032;-70
2022/04/16 07:52:22;;;;;;;14.55;5.25;;;;;;;;;;5022873;28;20751;-71
2022/04/16 07:54:47;;;;;;;27.00;7.03;;;;;;;;;;5020453;28;20029;-70
2022/04/16 07:57:14;;;;;;;19.02;5.95;;;;;;;;;;5020609;28;20033;-70
2022/04/16 07:59:39;;;;;;;10.40;5.10;;;;;;;;;;5022139;28;20025;-68
2022/04/16 08:02:05;;;;;;;17.10;5.20;;;;;;;;;;5022416;28;20410;-69
2022/04/16 08:04:30;;;;;;;7.97;4.70;;;;;;;;;;5022888;28;20060;-69
2022/04/16 08:06:56;;;;;;;6.05;4.93;;;;;;;;;;5021916;28;20035;-69
2022/04/16 08:09:21;;;;;;;6.88;4.90;;;;;;;;;;5021845;28;20033;-69
2022/04/16 08:11:47;;;;;;;7.35;5.40;;;;;;;;;;5021321;28;20040;-69
2022/04/16 08:14:13;;;;;;;7.13;4.40;;;;;;;;;;5021666;28;20045;-69
2022/04/16 08:16:39;;;;;;;6.32;4.97;;;;;;;;;;5023201;28;20034;-69
2022/04/16 08:19:05;;;;;;;5.97;4.85;;;;;;;;;;5020534;28;20041;-69
2022/04/16 08:21:32;;;;;;;7.47;4.65;;;;;;;;;;5023349;28;20076;-69
2022/04/16 08:24:04;;;;;;;6.40;4.40;;;;;;;;;;5022541;28;20033;-69
2022/04/16 08:26:31;;;;;;;6.22;4.70;;;;;;;;;;5022947;28;20044;-69
2022/04/16 08:28:56;;;;;;;6.57;4.82;;;;;;;;;;5021611;28;20029;-69
2022/04/16 08:31:22;;;;;;;5.65;4.57;;;;;;;;;;5018558;28;20098;-69
2022/04/16 08:33:49;;;;;;;7.13;5.20;;;;;;;;;;5020325;28;20044;-69
2022/04/16 08:36:14;;;;;;;4.90;3.95;;;;;;;;;;5019456;28;20037;-69
2022/04/16 08:38:40;;;;;;;5.53;4.50;;;;;;;;;;5019013;28;20033;-69
2022/04/16 08:41:09;;;;;;;4.80;4.25;;;;;;;;;;5017928;28;20046;-69
2022/04/16 08:43:35;;;;;;;4.60;4.10;;;;;;;;;;5018430;28;20032;-69
2022/04/16 08:46:03;;;;;;;4.55;3.70;;;;;;;;;;5019131;28;20553;-69
2022/04/16 08:48:30;;;;;;;8.18;3.90;;;;;;;;;;5018526;28;20532;-69
2022/04/16 08:50:57;;;;;;;4.20;3.42;;;;;;;;;;5016748;28;20039;-69
2022/04/16 08:53:22;;;;;;;3.65;3.20;;;;;;;;;;5016921;28;20041;-69
2022/04/16 08:55:48;;;;;;;4.97;4.45;;;;;;;;;;5016861;28;20040;-69
2022/04/16 08:58:13;;;;;;;6.10;4.32;;;;;;;;;;5015967;28;20041;-69
2022/04/16 09:00:39;;;;;;;4.70;4.10;;;;;;;;;;5017037;28;20112;-71
2022/04/16 09:03:06;;;;;;;5.00;3.88;;;;;;;;;;5016224;28;20110;-71
2022/04/16 09:05:32;;;;;;;4.35;3.83;;;;;;;;;;5017219;28;20033;-71
2022/04/16 09:08:02;;;;;;;4.85;3.80;;;;;;;;;;5019870;28;20076;-72
2022/04/16 09:10:29;;;;;;;4.60;4.10;;;;;;;;;;5020905;28;20025;-71
2022/04/16 09:12:57;;;;;;;4.88;3.65;;;;;;;;;;5020426;28;20553;-71
2022/04/16 09:15:24;;;;;;;3.40;3.10;;;;;;;;;;5019525;28;20078;-69
2022/04/16 09:17:59;;;;;;;3.42;3.08;;;;;;;;;;5020340;28;20103;-69
2022/04/16 09:20:31;;;;;;;3.38;3.08;;;;;;;;;;5020954;28;20030;-70
2022/04/16 09:22:56;;;;;;;3.90;3.50;;;;;;;;;;5020764;28;20037;-69
2022/04/16 09:25:22;;;;;;;4.80;3.70;;;;;;;;;;5019588;28;20037;-69
2022/04/16 09:27:49;;;;;;;3.72;3.30;;;;;;;;;;5019500;28;20191;-69
2022/04/16 09:30:22;;;;;;;6.30;5.40;;;;;;;;;;5020159;28;20041;-70
2022/04/16 09:32:48;;;;;;;22.83;12.57;;;;;;;;;;5021912;28;20127;-69
2022/04/16 09:35:28;;;;;;;12.75;8.30;;;;;;;;;;5020859;28;20147;-69
2022/04/16 09:38:01;;;;;;;26.75;22.20;;;;;;;;;;5012151;28;20124;-70
2022/04/16 09:40:31;;;;;;;92.60;55.03;;;;;;;;;;5023808;28;20033;-70
2022/04/16 09:42:59;;;;;;;14.73;9.13;;;;;;;;;;5023278;28;20200;-70
2022/04/16 09:45:25;;;;;;;27.30;17.05;;;;;;;;;;5022821;28;20079;-70
2022/04/16 09:47:52;;;;;;;20.48;18.17;;;;;;;;;;5020210;28;20033;-69
2022/04/16 09:50:20;;;;;;;5.82;5.32;;;;;;;;;;5022073;28;20541;-70
2022/04/16 09:52:56;;;;;;;3.55;3.25;;;;;;;;;;5022038;28;20037;-69
2022/04/16 09:55:24;;;;;;;5.32;3.28;;;;;;;;;;5021873;28;20112;-69
2022/04/16 09:58:01;;;;;;;3.65;3.35;;;;;;;;;;5020670;28;20502;-69
2022/04/16 10:00:28;;;;;;;8.20;7.40;;;;;;;;;;5020469;28;20160;-69
2022/04/16 10:02:54;;;;;;;4.28;3.88;;;;;;;;;;5020516;28;20036;-69
2022/04/16 10:05:23;;;;;;;13.10;11.63;;;;;;;;;;5002587;28;20033;-69
2022/04/16 10:07:50;;;;;;;13.90;10.02;;;;;;;;;;5019540;28;20037;-69
2022/04/16 10:10:25;;;;;;;6.15;5.53;;;;;;;;;;5019037;28;20060;-69
2022/04/16 10:12:59;;;;;;;4.45;3.80;;;;;;;;;;5020632;28;20029;-69
2022/04/16 10:15:32;;;;;;;5.57;4.82;;;;;;;;;;5020235;28;20379;-69
2022/04/16 10:17:58;;;;;;;4.57;3.85;;;;;;;;;;5019411;28;20067;-69
2022/04/16 10:20:25;;;;;;;9.30;6.45;;;;;;;;;;5017067;28;20108;-70
2022/04/16 10:22:54;;;;;;;13.48;9.07;;;;;;;;;;5021062;28;20039;-69
2022/04/16 10:25:34;;;;;;;6.50;3.03;;;;;;;;;;5019898;28;20824;-70
2022/04/16 10:28:04;;;;;;;4.95;3.30;;;;;;;;;;5018585;28;20080;-69
2022/04/16 10:30:36;;;;;;;3.35;3.05;;;;;;;;;;5017277;28;20517;-70
2022/04/16 10:33:03;;;;;;;;;;;;;;;;;;5017717;28;20029;-69
2022/04/16 10:35:29;;;;;;;4.13;3.28;;;;;;;;;;5017437;28;19916;-71
2022/04/16 10:37:54;;;;;;;3.17;2.80;;;;;;;;;;5017935;28;20041;-71
2022/04/16 10:40:25;;;;;;;6.32;3.83;;;;;;;;;;5019870;28;20113;-70
2022/04/16 10:42:59;;;;;;;2.40;2.20;;;;;;;;;;5017285;28;20044;-71
2022/04/16 10:45:25;;;;;;;3.22;2.90;;;;;;;;;;5018415;28;20033;-70
2022/04/16 10:47:54;;;;;;;2.95;2.75;;;;;;;;;;5019607;28;20187;-71
2022/04/16 10:50:21;;;;;;;3.10;2.33;;;;;;;;;;5020478;28;20041;-70
2022/04/16 10:52:56;;;;;;;2.60;2.40;;;;;;;;;;5017894;28;20029;-70
2022/04/16 10:55:30;;;;;;;5.68;4.13;;;;;;;;;;5019679;28;20693;-70
2022/04/16 10:58:06;;;;;;;4.45;4.00;;;;;;;;;;5018012;28;21121;-70
2022/04/16 11:00:36;;;;;;;5.15;3.88;;;;;;;;;;5019395;28;20098;-70
2022/04/16 11:03:28;;;;;;;3.50;3.15;;;;;;;;;;5019064;28;20418;-70
2022/04/16 11:06:01;;;;;;;3.70;3.35;;;;;;;;;;5017196;28;20164;-70
2022/04/16 11:08:28;;;;;;;4.40;3.53;;;;;;;;;;5020291;28;20044;-70
2022/04/16 11:10:58;;;;;;;4.55;3.88;;;;;;;;;;5019507;28;20041;-70
2022/04/16 11:13:25;;;;;;;5.53;4.43;;;;;;;;;;5021167;28;20033;-70
2022/04/16 11:15:51;;;;;;;4.38;3.65;;;;;;;;;;5018837;28;20067;-71
2022/04/16 11:18:18;;;;;;;4.40;3.58;;;;;;;;;;5021136;28;20047;-70
2022/04/16 11:20:53;;;;;;;4.88;4.10;;;;;;;;;;5021364;28;20441;-70
2022/04/16 11:23:18;;;;;;;4.72;3.47;;;;;;;;;;5021122;28;20041;-70
2022/04/16 11:34:20;;;;;;;2.78;2.42;;;;;;;;;;5021100;28;20478;-70
2022/04/16 11:36:50;;;;;;;6.70;5.20;;;;;;;;;;5018378;28;20486;-70
2022/04/16 11:39:35;;;;;;;11.73;6.50;;;;;;;;;;5018985;28;20135;-73
2022/04/16 11:42:09;;;;;;;8.20;4.93;;;;;;;;;;5020584;28;20095;-69
2022/04/16 11:44:38;;;;;;;4.93;3.72;;;;;;;;;;5020648;28;20049;-68
2022/04/16 11:47:15;;;;;;;4.82;4.00;;;;;;;;;;5020872;28;20033;-69
2022/04/16 11:49:46;;;;;;;6.15;3.70;;;;;;;;;;5020927;28;20088;-68
2022/04/16 11:52:13;;;;;;;5.37;3.97;;;;;;;;;;5022565;28;20029;-68
2022/04/16 11:54:39;;;;;;;7.72;5.90;;;;;;;;;;5023312;28;20594;-68
2022/04/16 11:57:05;;;;;;;9.25;6.00;;;;;;;;;;5021186;28;20490;-68
2022/04/16 11:59:32;;;;;;;11.25;7.20;;;;;;;;;;5018099;28;20033;-68
2022/04/16 12:01:59;;;;;;;9.88;6.13;;;;;;;;;;5020657;28;20038;-68
2022/04/16 12:04:38;;;;;;;12.48;7.65;;;;;;;;;;5021774;28;20056;-68
2022/04/16 12:07:10;;;;;;;12.68;8.18;;;;;;;;;;5020390;28;20041;-68
2022/04/16 12:09:36;;;;;;;16.50;10.25;;;;;;;;;;5019203;28;20084;-68
2022/04/16 12:12:05;;;;;;;15.50;9.88;;;;;;;;;;5020452;28;20635;-68
2022/04/16 12:14:31;;;;;;;19.15;10.38;;;;;;;;;;5020158;28;20427;-69
2022/04/16 12:17:00;;;;;;;12.10;7.70;;;;;;;;;;5019752;28;20030;-68
2022/04/16 12:19:31;;;;;;;13.73;8.80;;;;;;;;;;5026685;28;20053;-69
2022/04/16 12:21:57;;;;;;;12.32;8.18;;;;;;;;;;5012881;28;20061;-68
2022/04/16 12:24:29;;;;;;;33.58;17.25;;;;;;;;;;5013183;28;20888;-68
2022/04/16 12:26:56;;;;;;;18.00;10.27;;;;;;;;;;5012126;28;20040;-68
2022/04/16 12:29:30;;;;;;;15.73;9.30;;;;;;;;;;5012348;28;20033;-68
2022/04/16 12:31:59;;;;;;;12.52;8.57;;;;;;;;;;5010877;28;20048;-68
2022/04/16 12:34:26;;;;;;;16.15;9.07;;;;;;;;;;5013587;28;20045;-68
2022/04/16 12:36:52;;;;;;;15.18;7.85;;;;;;;;;;5012070;28;20799;-68
2022/04/16 12:39:18;;;;;;;15.40;9.35;;;;;;;;;;5015035;28;20490;-69
2022/04/16 12:41:43;;;;;;;13.32;8.85;;;;;;;;;;5020788;28;20048;-68
2022/04/16 12:44:09;;;;;;;13.75;7.75;;;;;;;;;;5027821;28;20036;-68
2022/04/16 12:46:34;;;;;;;8.98;6.80;;;;;;;;;;5025013;28;20041;-68
2022/04/16 12:49:00;;;;;;;8.63;6.50;;;;;;;;;;5023637;28;20044;-68
2022/04/16 12:51:26;;;;;;;8.55;6.25;;;;;;;;;;5022753;28;20092;-68
2022/04/16 12:53:53;;;;;;;7.70;5.88;;;;;;;;;;5026154;28;21045;-68
2022/04/16 12:56:20;;;;;;;8.45;6.03;;;;;;;;;;5025110;28;20029;-68
2022/04/16 12:58:45;;;;;;;8.10;6.22;;;;;;;;;;5023820;28;20509;-67
2022/04/16 13:01:11;;;;;;;7.57;5.72;;;;;;;;;;5022748;28;20506;-70
2022/04/16 13:03:36;;;;;;;6.63;5.28;;;;;;;;;;5018734;28;20038;-69
2022/04/16 13:06:02;;;;;;;6.53;4.78;;;;;;;;;;5020055;28;20037;-69
2022/04/16 13:08:30;;;;;;;7.38;5.13;;;;;;;;;;5022540;28;20095;-67
2022/04/16 13:10:56;;;;;;;7.40;5.65;;;;;;;;;;5017455;28;20096;-67
2022/04/16 13:13:23;;;;;;;8.55;4.65;;;;;;;;;;5018480;28;20075;-68
2022/04/16 13:15:48;;;;;;;6.38;5.00;;;;;;;;;;5014959;28;20068;-68
2022/04/16 13:18:14;;;;;;;5.88;4.80;;;;;;;;;;5020220;28;20083;-68
2022/04/16 13:20:39;;;;;;;5.90;4.78;;;;;;;;;;5021491;28;20068;-71
2022/04/16 13:23:05;;;;;;;7.10;5.05;;;;;;;;;;5005081;28;20041;-67
2022/04/16 13:25:33;;;;;;;6.88;5.20;;;;;;;;;;5023479;28;20044;-67
2022/04/16 13:27:58;;;;;;;6.22;4.50;;;;;;;;;;5017983;28;20120;-68
2022/04/16 13:30:24;;;;;;;5.45;4.30;;;;;;;;;;5022140;28;20133;-69
2022/04/16 13:32:50;;;;;;;4.53;4.13;;;;;;;;;;5020590;28;20033;-68
2022/04/16 13:35:15;;;;;;;7.97;5.00;;;;;;;;;;5023009;28;20033;-69
2022/04/16 13:37:41;;;;;;;5.80;4.88;;;;;;;;;;5021381;28;20049;-69
2022/04/16 13:42:51;;;;;;;6.07;4.45;;;;;;;;;;5022782;28;20041;-67
2022/04/16 13:45:16;;;;;;;6.32;4.70;;;;;;;;;;5022964;28;20044;-69
2022/04/16 13:47:42;;;;;;;4.47;4.00;;;;;;;;;;5026282;28;20326;-70
2022/04/16 13:50:08;;;;;;;4.93;4.10;;;;;;;;;;5025043;28;20133;-67
2022/04/16 13:52:33;;;;;;;6.75;4.32;;;;;;;;;;5023337;28;20478;-69
2022/04/16 13:54:59;;;;;;;4.78;3.75;;;;;;;;;;5022473;28;20087;-67
2022/04/16 13:57:24;;;;;;;15.43;6.18;;;;;;;;;;5023310;28;20519;-68
2022/04/16 13:59:50;;;;;;;18.30;10.25;;;;;;;;;;5020808;28;20045;-68
2022/04/16 14:02:15;;;;;;;12.75;6.93;;;;;;;;;;5022544;28;20039;-67
2022/04/16 14:07:25;;;;;;;5.38;4.13;;;;;;;;;;5022416;28;20037;-72
2022/04/16 14:09:51;;;;;;;5.85;4.18;;;;;;;;;;5021645;28;20505;-72
2022/04/16 14:12:17;;;;;;;3.78;3.20;;;;;;;;;;5021100;28;20037;-71
2022/04/16 14:14:43;;;;;;;7.22;3.50;;;;;;;;;;5021626;28;20029;-71
2022/04/16 14:17:09;;;;;;;4.10;3.20;;;;;;;;;;5020798;28;20038;-73
2022/04/16 14:19:34;;;;;;;3.53;3.17;;;;;;;;;;5022623;28;20060;-73
2022/04/16 14:22:00;;;;;;;5.20;3.40;;;;;;;;;;5020965;28;20098;-74
2022/04/16 14:24:25;;;;;;;3.72;3.20;;;;;;;;;;5022271;28;20103;-73
2022/04/16 14:26:51;;;;;;;5.13;3.42;;;;;;;;;;5022358;28;20090;-73
2022/04/16 14:29:17;;;;;;;4.40;3.35;;;;;;;;;;5022317;28;20037;-73
2022/04/16 14:31:44;;;;;;;3.92;3.28;;;;;;;;;;5022220;28;20032;-72
2022/04/16 14:34:10;;;;;;;3.13;2.83;;;;;;;;;;5021495;28;20037;-72
2022/04/16 14:36:36;;;;;;;3.03;2.65;;;;;;;;;;5022184;28;20061;-73
2022/04/16 14:39:02;;;;;;;3.13;2.60;;;;;;;;;;5022294;28;20128;-73
2022/04/16 14:41:28;;;;;;;5.18;2.30;;;;;;;;;;5021240;28;20052;-73
2022/04/16 14:43:58;;;;;;;2.60;2.40;;;;;;;;;;5018327;28;20037;-73
2022/04/16 14:46:24;;;;;;;2.47;2.00;;;;;;;;;;5023755;28;20032;-73
2022/04/16 14:48:53;;;;;;;7.20;5.05;;;;;;;;;;5027710;28;20067;-73
2022/04/16 14:51:23;;;;;;;2.95;2.70;;;;;;;;;;5020429;28;20025;-69
2022/04/16 14:53:49;;;;;;;2.38;2.17;;;;;;;;;;5020724;28;20494;-70
2022/04/16 14:56:15;;;;;;;3.42;2.30;;;;;;;;;;5019026;28;20051;-69
2022/04/16 14:58:40;;;;;;;3.25;2.65;;;;;;;;;;5021296;28;20512;-69
2022/04/16 15:01:06;;;;;;;2.30;1.92;;;;;;;;;;5019801;28;20035;-69
2022/04/16 15:03:32;;;;;;;2.40;2.20;;;;;;;;;;5021175;28;20041;-69
2022/04/16 15:05:58;;;;;;;2.72;2.53;;;;;;;;;;5014588;28;20033;-69